createdAt,value
2023-05-05T00:01:20.846Z,3.33
2023-05-05T00:03:47.643Z,3.45
2023-05-05T00:06:14.804Z,3.40
2023-05-05T00:08:42.546Z,4.20
2023-05-05T00:11:09.433Z,3.20
2023-05-05T00:13:36.026Z,3.35
2023-05-05T00:16:02.558Z,4.00
2023-05-05T00:18:29.657Z,4.30
2023-05-05T00:20:56.244Z,3.45
2023-05-05T00:23:24.426Z,3.63
2023-05-05T00:25:51.295Z,3.83
2023-05-05T00:28:17.902Z,4.10
2023-05-05T00:30:45.418Z,3.83
2023-05-05T00:33:12.392Z,3.33
2023-05-05T00:35:39.045Z,3.80
2023-05-05T00:38:05.646Z,4.15
2023-05-05T00:40:32.573Z,4.18
2023-05-05T00:42:59.832Z,3.70
2023-05-05T00:45:26.457Z,3.90
2023-05-05T00:47:56.528Z,4.03
2023-05-05T00:50:31.328Z,3.60
2023-05-05T00:53:02.384Z,4.10
2023-05-05T00:55:31.074Z,4.15
2023-05-05T00:58:02.090Z,4.15
2023-05-05T01:00:30.840Z,3.77
2023-05-05T01:02:57.919Z,3.58
2023-05-05T01:05:27.982Z,3.72
2023-05-05T01:08:21.450Z,4.15
2023-05-05T01:11:01.358Z,3.42
2023-05-05T01:13:37.440Z,3.53
2023-05-05T01:16:13.993Z,4.05
2023-05-05T01:18:52.462Z,3.95
2023-05-05T01:21:27.630Z,4.25
2023-05-05T01:24:32.024Z,4.38
2023-05-05T01:27:21.222Z,3.93
2023-05-05T01:30:13.223Z,4.20
2023-05-05T01:32:46.437Z,4.40
2023-05-05T01:35:20.718Z,4.30
2023-05-05T01:37:59.543Z,3.90
2023-05-05T01:40:30.398Z,4.27
2023-05-05T01:42:58.695Z,4.05
2023-05-05T01:45:28.620Z,4.13
2023-05-05T01:47:56.613Z,4.47
2023-05-05T01:50:26.093Z,4.68
2023-05-05T01:52:54.476Z,4.87
2023-05-05T01:55:25.168Z,4.60
2023-05-05T01:57:54.321Z,3.85
2023-05-05T02:00:22.784Z,4.43
2023-05-05T02:02:50.540Z,4.22
2023-05-05T02:05:19.914Z,4.47
2023-05-05T02:07:47.014Z,3.78
2023-05-05T02:10:14.983Z,3.72
2023-05-05T02:12:43.566Z,4.13
2023-05-05T02:15:11.410Z,3.88
2023-05-05T02:17:42.360Z,4.37
2023-05-05T02:20:12.269Z,4.50
2023-05-05T02:22:38.851Z,4.20
2023-05-05T02:25:06.445Z,4.22
2023-05-05T02:27:35.922Z,4.13
2023-05-05T02:30:07.349Z,4.10
2023-05-05T02:32:37.741Z,4.65
2023-05-05T02:35:12.513Z,3.83
2023-05-05T02:37:40.689Z,4.05
2023-05-05T02:40:09.307Z,3.92
2023-05-05T02:42:39.402Z,3.73
2023-05-05T02:45:12.564Z,3.78
2023-05-05T02:47:39.137Z,3.95
2023-05-05T02:50:07.597Z,3.85
2023-05-05T02:52:35.208Z,4.03
2023-05-05T02:55:03.247Z,3.80
2023-05-05T02:57:49.025Z,4.10
2023-05-05T03:00:32.689Z,3.83
2023-05-05T03:03:16.602Z,3.80
2023-05-05T03:05:56.097Z,4.07
2023-05-05T03:08:44.429Z,3.77
2023-05-05T03:11:21.311Z,3.67
2023-05-05T03:13:51.752Z,3.90
2023-05-05T03:16:20.047Z,3.75
2023-05-05T03:18:48.610Z,3.75
2023-05-05T03:21:15.315Z,3.67
2023-05-05T03:23:42.036Z,3.88
2023-05-05T03:26:08.845Z,3.80
2023-05-05T03:28:35.386Z,4.05
2023-05-05T03:31:03.541Z,4.38
2023-05-05T03:33:30.126Z,4.57
2023-05-05T03:35:56.683Z,4.18
2023-05-05T03:38:23.278Z,4.18
2023-05-05T03:40:49.859Z,3.50
2023-05-05T03:43:16.455Z,4.05
2023-05-05T03:45:43.176Z,4.50
2023-05-05T03:48:10.183Z,3.92
2023-05-05T03:50:36.807Z,4.28
2023-05-05T03:53:03.545Z,4.32
2023-05-05T03:55:30.130Z,4.32
2023-05-05T03:57:56.785Z,3.70
2023-05-05T04:00:23.733Z,4.35
2023-05-05T04:02:50.581Z,4.18
2023-05-05T04:05:17.515Z,3.70
2023-05-05T04:07:44.050Z,4.00
2023-05-05T04:10:10.749Z,4.23
2023-05-05T04:12:37.454Z,3.65
2023-05-05T04:15:04.766Z,4.00
2023-05-05T04:17:31.343Z,4.20
2023-05-05T04:19:58.060Z,3.97
2023-05-05T04:22:24.632Z,3.97
2023-05-05T04:24:51.233Z,3.72
2023-05-05T04:27:17.846Z,3.50
2023-05-05T04:29:44.527Z,4.03
2023-05-05T04:32:11.103Z,4.30
2023-05-05T04:34:37.958Z,4.17
2023-05-05T04:37:04.541Z,4.50
2023-05-05T04:39:32.563Z,4.90
2023-05-05T04:41:59.294Z,4.28
2023-05-05T04:44:25.909Z,3.97
2023-05-05T04:46:52.564Z,4.20
2023-05-05T04:49:19.214Z,5.07
2023-05-05T04:51:46.754Z,4.55
2023-05-05T04:54:13.724Z,4.63
2023-05-05T04:56:40.300Z,4.80
2023-05-05T04:59:07.704Z,4.67
2023-05-05T05:01:35.758Z,4.55
2023-05-05T05:04:05.051Z,5.00
2023-05-05T05:06:32.387Z,4.78
2023-05-05T05:08:59.001Z,4.55
2023-05-05T05:11:25.670Z,4.67
2023-05-05T05:13:53.207Z,4.53
2023-05-05T05:16:19.873Z,4.90
2023-05-05T05:18:46.513Z,4.85
2023-05-05T05:21:13.376Z,4.88
2023-05-05T05:23:40.090Z,4.60
2023-05-05T05:26:06.628Z,5.13
2023-05-05T05:28:33.209Z,4.63
2023-05-05T05:31:00.545Z,4.88
2023-05-05T05:33:28.633Z,5.07
2023-05-05T05:35:55.166Z,4.87
2023-05-05T05:38:21.755Z,4.97
2023-05-05T05:40:48.311Z,4.55
2023-05-05T05:43:14.976Z,4.95
2023-05-05T05:45:41.739Z,4.65
2023-05-05T05:48:08.349Z,5.17
2023-05-05T05:50:36.473Z,4.78
2023-05-05T05:53:03.146Z,4.90
2023-05-05T05:55:29.859Z,5.30
2023-05-05T05:57:56.489Z,5.53
2023-05-05T06:00:23.276Z,5.30
2023-05-05T06:02:51.426Z,4.97
2023-05-05T06:05:18.433Z,4.80
2023-05-05T06:07:45.229Z,5.43
2023-05-05T06:10:26.565Z,5.38
2023-05-05T06:12:54.484Z,5.10
2023-05-05T06:15:21.178Z,5.10
2023-05-05T06:17:47.864Z,5.03
2023-05-05T06:20:14.604Z,5.07
2023-05-05T06:22:41.251Z,5.68
2023-05-05T06:25:08.324Z,6.03
2023-05-05T06:27:35.299Z,5.30
2023-05-05T06:30:01.917Z,5.07
2023-05-05T06:32:28.511Z,5.22
2023-05-05T06:34:55.277Z,5.68
2023-05-05T06:37:21.841Z,5.70
2023-05-05T06:39:49.105Z,5.88
2023-05-05T06:42:15.711Z,5.20
2023-05-05T06:44:42.254Z,5.25
2023-05-05T06:47:08.927Z,6.00
2023-05-05T06:49:35.571Z,5.67
2023-05-05T06:52:02.165Z,6.30
2023-05-05T06:54:28.758Z,6.00
2023-05-05T06:56:56.193Z,5.93
2023-05-05T06:59:23.815Z,5.75
2023-05-05T07:01:51.873Z,6.00
2023-05-05T07:04:18.892Z,5.70
2023-05-05T07:06:45.566Z,6.47
2023-05-05T07:09:13.042Z,6.55
2023-05-05T07:11:39.957Z,6.13
2023-05-05T07:14:06.602Z,5.70
2023-05-05T07:16:34.971Z,5.28
2023-05-05T07:19:01.902Z,5.88
2023-05-05T07:21:28.460Z,6.10
2023-05-05T07:23:55.477Z,6.50
2023-05-05T07:26:22.182Z,5.83
2023-05-05T07:28:48.776Z,5.55
2023-05-05T07:31:15.541Z,6.80
2023-05-05T07:33:42.430Z,6.25
2023-05-05T07:36:09.134Z,6.82
2023-05-05T07:38:35.961Z,5.47
2023-05-05T07:41:03.353Z,6.68
2023-05-05T07:43:30.048Z,5.93
2023-05-05T07:45:56.659Z,6.53
2023-05-05T07:48:23.233Z,6.65
2023-05-05T07:50:49.811Z,6.73
2023-05-05T07:53:16.383Z,6.50
2023-05-05T07:55:42.939Z,6.45
2023-05-05T07:58:11.245Z,6.47
2023-05-05T08:00:38.492Z,7.03
2023-05-05T08:03:06.235Z,6.37
2023-05-05T08:05:33.754Z,6.10
2023-05-05T08:08:00.557Z,6.80
2023-05-05T08:10:30.056Z,6.57
2023-05-05T08:12:56.884Z,7.10
2023-05-05T08:15:23.495Z,6.03
2023-05-05T08:17:52.685Z,6.45
2023-05-05T08:20:20.664Z,7.47
2023-05-05T08:22:47.829Z,6.82
2023-05-05T08:25:14.579Z,7.38
2023-05-05T08:27:42.427Z,7.27
2023-05-05T08:30:10.241Z,6.70
2023-05-05T08:32:37.204Z,7.40
2023-05-05T08:35:05.316Z,7.75
2023-05-05T08:37:32.001Z,6.85
2023-05-05T08:39:58.747Z,6.60
2023-05-05T08:42:37.273Z,7.53
2023-05-05T08:45:07.432Z,7.13
2023-05-05T08:47:36.465Z,6.75
2023-05-05T08:50:05.802Z,6.68
2023-05-05T08:52:40.468Z,6.70
2023-05-05T08:55:18.126Z,7.32
2023-05-05T08:57:53.123Z,6.60
2023-05-05T09:00:20.590Z,6.80
2023-05-05T09:02:48.037Z,7.05
2023-05-05T09:05:15.592Z,6.50
2023-05-05T09:07:44.263Z,7.05
2023-05-05T09:10:12.630Z,7.85
2023-05-05T09:12:40.599Z,7.82
2023-05-05T09:15:12.052Z,6.90
2023-05-05T09:17:39.741Z,6.60
2023-05-05T09:20:08.138Z,5.85
2023-05-05T09:22:37.947Z,7.20
2023-05-05T09:25:06.546Z,8.25
2023-05-05T09:27:38.170Z,7.65
2023-05-05T09:30:10.250Z,7.40
2023-05-05T09:32:50.795Z,7.00
2023-05-05T09:35:18.488Z,6.28
2023-05-05T09:37:45.287Z,5.70
2023-05-05T09:40:15.331Z,6.72
2023-05-05T09:42:42.441Z,5.60
2023-05-05T09:45:18.191Z,6.25
2023-05-05T09:47:47.308Z,6.55
2023-05-05T09:50:21.560Z,6.50
2023-05-05T09:52:58.848Z,6.88
2023-05-05T09:55:29.564Z,5.83
2023-05-05T09:57:56.342Z,5.82
2023-05-05T10:00:37.487Z,5.78
2023-05-05T10:03:04.495Z,4.90
2023-05-05T10:05:31.064Z,6.05
2023-05-05T10:08:13.620Z,5.87
2023-05-05T10:10:51.652Z,5.50
2023-05-05T10:13:19.936Z,6.65
2023-05-05T10:15:50.120Z,6.40
2023-05-05T10:18:21.270Z,7.38
2023-05-05T10:20:52.188Z,6.20
2023-05-05T10:23:20.939Z,6.72
2023-05-05T10:25:59.153Z,7.03
2023-05-05T10:28:33.072Z,7.10
2023-05-05T10:31:04.263Z,6.60
2023-05-05T10:34:04.257Z,7.10
2023-05-05T10:36:32.032Z,7.60
2023-05-05T10:39:00.278Z,7.38
2023-05-05T10:41:27.223Z,7.32
2023-05-05T10:43:57.475Z,6.60
2023-05-05T10:46:28.352Z,7.07
2023-05-05T10:49:04.853Z,7.85
2023-05-05T10:51:40.016Z,7.82
2023-05-05T10:54:20.979Z,7.80
2023-05-05T10:56:47.586Z,8.07
2023-05-05T10:59:36.868Z,8.47
2023-05-05T11:02:29.952Z,8.05
2023-05-05T11:05:25.959Z,7.63
2023-05-05T11:07:52.648Z,8.63
2023-05-05T11:10:20.859Z,8.95
2023-05-05T11:13:03.156Z,7.90
2023-05-05T11:15:30.316Z,8.63
2023-05-05T11:17:58.779Z,8.93
2023-05-05T11:20:40.604Z,8.75
2023-05-05T11:23:07.459Z,9.20
2023-05-05T11:25:37.832Z,8.60
2023-05-05T11:28:14.617Z,8.63
2023-05-05T11:30:57.465Z,7.30
2023-05-05T11:33:31.185Z,8.45
2023-05-05T11:35:59.472Z,8.43
2023-05-05T11:38:53.851Z,7.30
2023-05-05T11:41:26.140Z,7.25
2023-05-05T11:44:17.298Z,6.57
2023-05-05T11:46:54.024Z,6.03
2023-05-05T11:49:31.862Z,7.18
2023-05-05T11:52:08.020Z,6.23
2023-05-05T11:54:36.356Z,5.95
2023-05-05T11:57:05.656Z,6.15
2023-05-05T11:59:50.239Z,7.22
2023-05-05T12:02:18.248Z,6.07
2023-05-05T12:04:45.543Z,7.30
2023-05-05T12:07:20.216Z,6.78
2023-05-05T12:09:49.592Z,6.57
2023-05-05T12:12:17.178Z,7.53
2023-05-05T12:14:47.950Z,6.43
2023-05-05T12:17:14.603Z,6.93
2023-05-05T12:20:09.139Z,6.82
2023-05-05T12:22:36.519Z,6.47
2023-05-05T12:25:08.230Z,5.88
2023-05-05T12:27:38.945Z,4.68
2023-05-05T12:30:16.874Z,3.47
2023-05-05T12:32:44.198Z,3.92
2023-05-05T12:35:12.403Z,3.60
2023-05-05T12:37:39.297Z,3.40
2023-05-05T12:40:07.323Z,3.58
2023-05-05T12:42:39.067Z,3.57
2023-05-05T12:45:07.373Z,3.40
2023-05-05T12:47:34.400Z,3.28
2023-05-05T12:50:03.245Z,4.05
2023-05-05T12:52:51.933Z,3.20
2023-05-05T12:55:19.867Z,2.90
2023-05-05T12:58:04.726Z,2.70
2023-05-05T13:00:31.785Z,2.67
2023-05-05T13:02:58.675Z,2.90
2023-05-05T13:05:41.131Z,1.88
2023-05-05T13:08:07.797Z,2.67
2023-05-05T13:10:34.504Z,2.92
2023-05-05T13:13:01.088Z,3.00
2023-05-05T13:15:28.295Z,2.97
2023-05-05T13:18:01.711Z,2.83
2023-05-05T13:20:29.028Z,2.53
2023-05-05T13:22:55.681Z,2.25
2023-05-05T13:25:22.539Z,2.85
2023-05-05T13:27:49.178Z,1.67
2023-05-05T13:30:16.064Z,2.15
2023-05-05T13:32:42.699Z,1.57
2023-05-05T13:35:09.480Z,1.92
2023-05-05T13:37:36.594Z,2.40
2023-05-05T13:40:03.735Z,2.30
2023-05-05T13:42:30.305Z,2.15
2023-05-05T13:44:56.837Z,2.03
2023-05-05T13:47:23.560Z,2.22
2023-05-05T13:49:50.223Z,2.60
2023-05-05T13:52:16.788Z,2.10
2023-05-05T13:54:43.431Z,2.55
2023-05-05T13:57:11.224Z,2.33
2023-05-05T13:59:37.967Z,1.85
2023-05-05T14:02:05.572Z,2.25
2023-05-05T14:04:32.301Z,2.20
2023-05-05T14:06:58.990Z,2.97
2023-05-05T14:09:26.076Z,2.57
2023-05-05T14:11:52.629Z,2.72
2023-05-05T14:14:19.784Z,2.63
2023-05-05T14:16:48.663Z,2.20
2023-05-05T14:19:16.780Z,2.20
2023-05-05T14:21:43.318Z,2.73
2023-05-05T14:24:10.063Z,2.90
2023-05-05T14:26:36.625Z,3.38
2023-05-05T14:29:03.831Z,3.08
2023-05-05T14:31:30.649Z,4.28
2023-05-05T14:33:57.214Z,3.60
2023-05-05T14:36:23.868Z,3.88
2023-05-05T14:38:50.704Z,3.65
2023-05-05T14:41:17.311Z,3.85
2023-05-05T14:43:43.919Z,3.38
2023-05-05T14:46:10.889Z,3.67
2023-05-05T14:48:37.777Z,4.38
2023-05-05T14:51:04.867Z,4.50
2023-05-05T14:53:31.551Z,4.32
2023-05-05T14:55:58.358Z,4.45
2023-05-05T14:58:25.244Z,4.20
2023-05-05T15:00:53.004Z,3.58
2023-05-05T15:03:19.670Z,4.03
2023-05-05T15:05:46.624Z,3.92
2023-05-05T15:08:14.627Z,4.13
2023-05-05T15:10:41.545Z,4.10
2023-05-05T15:13:08.108Z,4.25
2023-05-05T15:15:35.753Z,4.50
2023-05-05T15:18:02.402Z,4.40
2023-05-05T15:20:29.162Z,4.85
2023-05-05T15:22:55.867Z,4.60
2023-05-05T15:25:22.473Z,4.10
2023-05-05T15:27:49.509Z,4.43
2023-05-05T15:30:16.196Z,4.10
2023-05-05T15:32:43.028Z,4.30
2023-05-05T15:35:09.820Z,4.03
2023-05-05T15:37:37.969Z,3.65
2023-05-05T15:40:05.656Z,4.50
2023-05-05T15:42:33.915Z,4.30
2023-05-05T15:45:04.777Z,4.38
2023-05-05T15:47:31.530Z,4.20
2023-05-05T15:49:58.121Z,3.58
2023-05-05T15:52:24.698Z,4.40
2023-05-05T15:54:51.268Z,4.35
2023-05-05T15:57:17.874Z,4.32
2023-05-05T15:59:44.604Z,4.17
2023-05-05T16:02:11.626Z,4.38
2023-05-05T16:04:38.171Z,4.60
2023-05-05T16:07:04.675Z,3.90
2023-05-05T16:09:31.286Z,4.60
2023-05-05T16:11:57.866Z,3.80
2023-05-05T16:14:24.987Z,4.05
2023-05-05T16:16:51.570Z,4.20
2023-05-05T16:19:18.301Z,3.83
2023-05-05T16:21:45.070Z,4.38
2023-05-05T16:24:16.196Z,4.20
2023-05-05T16:26:43.751Z,4.47
2023-05-05T16:29:10.672Z,4.85
2023-05-05T16:31:37.743Z,4.18
2023-05-05T16:34:04.682Z,4.32
2023-05-05T16:36:31.403Z,4.73
2023-05-05T16:38:58.866Z,24.17
2023-05-05T16:41:26.485Z,5.65
2023-05-05T16:43:55.809Z,5.25
2023-05-05T16:46:22.463Z,5.30
2023-05-05T16:48:49.214Z,4.73
2023-05-05T16:51:15.824Z,5.15
2023-05-05T16:53:42.448Z,5.47
2023-05-05T16:56:13.224Z,4.75
2023-05-05T16:58:40.344Z,5.20
2023-05-05T17:01:07.004Z,5.07
2023-05-05T17:03:34.670Z,4.25
2023-05-05T17:06:01.289Z,4.80
2023-05-05T17:08:27.978Z,5.22
2023-05-05T17:10:54.591Z,6.57
2023-05-05T17:13:23.123Z,6.30
2023-05-05T17:15:52.693Z,6.63
2023-05-05T17:18:21.291Z,6.07
2023-05-05T17:20:49.233Z,4.90
2023-05-05T17:23:16.797Z,5.30
2023-05-05T17:25:43.429Z,5.80
2023-05-05T17:28:11.355Z,5.38
2023-05-05T17:30:37.949Z,5.25
2023-05-05T17:33:04.751Z,4.72
2023-05-05T17:35:33.360Z,5.20
2023-05-05T17:38:00.047Z,5.33
2023-05-05T17:40:26.776Z,5.72
2023-05-05T17:42:53.332Z,5.93
2023-05-05T17:45:19.978Z,6.15
2023-05-05T17:47:46.622Z,6.88
2023-05-05T17:50:13.163Z,6.07
2023-05-05T17:52:41.200Z,6.40
2023-05-05T17:55:08.544Z,5.88
2023-05-05T17:57:35.679Z,5.80
2023-05-05T18:00:06.857Z,5.30
2023-05-05T18:02:36.887Z,5.03
2023-05-05T18:05:04.309Z,5.28
2023-05-05T18:07:30.904Z,5.60
2023-05-05T18:09:57.822Z,5.28
2023-05-05T18:12:24.377Z,6.03
2023-05-05T18:14:52.049Z,5.40
2023-05-05T18:17:18.639Z,5.38
2023-05-05T18:19:47.243Z,5.60
2023-05-05T18:22:15.637Z,5.93
2023-05-05T18:24:42.277Z,5.75
2023-05-05T18:27:09.066Z,5.00
2023-05-05T18:29:36.302Z,5.10
2023-05-05T18:32:02.909Z,4.75
2023-05-05T18:34:29.728Z,4.82
2023-05-05T18:36:57.257Z,5.47
2023-05-05T18:39:24.244Z,5.70
2023-05-05T18:41:50.829Z,5.72
2023-05-05T18:44:18.689Z,5.95
2023-05-05T18:46:47.186Z,5.95
2023-05-05T18:49:13.841Z,6.03
2023-05-05T18:51:40.843Z,6.23
2023-05-05T18:54:07.658Z,7.68
2023-05-05T18:56:34.430Z,8.27
2023-05-05T18:59:00.967Z,7.47
2023-05-05T19:01:27.640Z,7.20
2023-05-05T19:03:54.306Z,7.20
2023-05-05T19:06:21.169Z,5.72
2023-05-05T19:08:49.064Z,5.97
2023-05-05T19:11:15.999Z,6.40
2023-05-05T19:13:42.913Z,5.85
2023-05-05T19:16:11.517Z,6.20
2023-05-05T19:18:38.836Z,6.50
2023-05-05T19:21:05.721Z,6.47
2023-05-05T19:23:32.384Z,5.60
2023-05-05T19:25:59.006Z,5.53
2023-05-05T19:28:25.579Z,6.17
2023-05-05T19:30:52.393Z,6.15
2023-05-05T19:33:19.003Z,6.22
2023-05-05T19:35:45.605Z,5.30
2023-05-05T19:38:12.382Z,6.50
2023-05-05T19:40:40.053Z,4.43
2023-05-05T19:43:07.269Z,4.72
2023-05-05T19:45:34.110Z,4.57
2023-05-05T19:48:01.745Z,5.20
2023-05-05T19:50:30.625Z,5.07
2023-05-05T19:52:57.577Z,5.43
2023-05-05T19:55:27.230Z,5.82
2023-05-05T19:57:54.142Z,6.20
2023-05-05T20:00:20.789Z,6.38
2023-05-05T20:02:49.226Z,7.45
2023-05-05T20:05:17.960Z,6.63
2023-05-05T20:07:46.442Z,6.82
2023-05-05T20:10:16.798Z,7.40
2023-05-05T20:12:49.073Z,7.53
2023-05-05T20:15:18.911Z,8.18
2023-05-05T20:17:47.164Z,7.60
2023-05-05T20:20:19.046Z,7.50
2023-05-05T20:22:47.591Z,8.40
2023-05-05T20:25:16.308Z,8.90
2023-05-05T20:27:43.638Z,9.40
2023-05-05T20:30:10.951Z,9.30
2023-05-05T20:32:38.246Z,10.65
2023-05-05T20:35:06.226Z,10.00
2023-05-05T20:37:32.837Z,10.05
2023-05-05T20:39:59.438Z,11.30
2023-05-05T20:42:26.473Z,9.87
2023-05-05T20:44:53.234Z,9.80
2023-05-05T20:47:19.930Z,9.65
2023-05-05T20:49:46.641Z,8.18
2023-05-05T20:52:13.374Z,7.85
2023-05-05T20:54:39.937Z,7.07
2023-05-05T20:57:09.614Z,6.72
2023-05-05T20:59:37.636Z,6.95
2023-05-05T21:02:04.692Z,6.88
2023-05-05T21:04:31.392Z,7.43
2023-05-05T21:06:58.377Z,7.63
2023-05-05T21:09:25.030Z,6.90
2023-05-05T21:11:51.653Z,7.50
2023-05-05T21:14:18.231Z,7.45
2023-05-05T21:16:44.880Z,7.45
2023-05-05T21:19:11.468Z,7.50
2023-05-05T21:21:38.059Z,7.68
2023-05-05T21:24:08.036Z,7.05
2023-05-05T21:26:34.749Z,7.00
2023-05-05T21:29:01.646Z,7.63
2023-05-05T21:31:28.237Z,7.00
2023-05-05T21:33:54.871Z,7.05
2023-05-05T21:36:21.479Z,8.13
2023-05-05T21:38:49.606Z,8.20
2023-05-05T21:41:16.935Z,8.02
2023-05-05T21:43:43.576Z,8.07
2023-05-05T21:46:10.480Z,8.07
2023-05-05T21:48:39.002Z,7.88
2023-05-05T21:51:06.828Z,9.27
2023-05-05T21:53:33.421Z,10.02
2023-05-05T21:55:59.938Z,10.27
2023-05-05T21:58:26.610Z,11.63
2023-05-05T22:00:53.272Z,10.18
2023-05-05T22:03:20.005Z,10.25
2023-05-05T22:05:47.059Z,9.55
2023-05-05T22:08:13.595Z,9.87
2023-05-05T22:10:40.210Z,9.10
2023-05-05T22:13:06.894Z,9.93
2023-05-05T22:15:45.397Z,9.02
2023-05-05T22:18:13.579Z,7.82
2023-05-05T22:20:40.773Z,6.90
2023-05-05T22:23:07.463Z,7.43
2023-05-05T22:25:34.113Z,6.88
2023-05-05T22:28:03.686Z,6.55
2023-05-05T22:30:30.313Z,6.40
2023-05-05T22:32:56.951Z,6.30
2023-05-05T22:35:23.793Z,6.07
2023-05-05T22:37:50.397Z,6.57
2023-05-05T22:40:17.075Z,6.43
2023-05-05T22:42:43.748Z,5.55
2023-05-05T22:45:11.012Z,5.73
2023-05-05T22:47:37.898Z,6.47
2023-05-05T22:50:04.664Z,5.95
2023-05-05T22:52:31.615Z,5.95
2023-05-05T22:54:58.149Z,6.20
2023-05-05T22:57:24.796Z,6.70
2023-05-05T22:59:51.700Z,6.97
2023-05-05T23:02:18.324Z,7.65
2023-05-05T23:04:45.150Z,7.18
2023-05-05T23:07:13.181Z,7.75
2023-05-05T23:09:40.846Z,7.30
2023-05-05T23:12:07.391Z,8.05
2023-05-05T23:14:34.004Z,8.18
2023-05-05T23:17:01.025Z,7.25
2023-05-05T23:19:29.189Z,7.63
2023-05-05T23:21:55.838Z,7.43
2023-05-05T23:24:22.433Z,7.55
2023-05-05T23:26:49.071Z,7.75
2023-05-05T23:29:15.835Z,8.02
2023-05-05T23:31:42.608Z,8.00
2023-05-05T23:34:09.323Z,7.90
2023-05-05T23:36:35.852Z,8.13
2023-05-05T23:39:02.413Z,8.50
2023-05-05T23:41:28.979Z,8.20
2023-05-05T23:43:56.412Z,8.43
2023-05-05T23:46:24.172Z,8.27
2023-05-05T23:48:51.245Z,8.85
2023-05-05T23:51:18.008Z,8.90
2023-05-05T23:53:44.608Z,8.82
2023-05-05T23:56:11.860Z,9.32
2023-05-05T23:58:38.559Z,8.50
